createdAt,value
2018-03-14T00:01:21.288Z,15.90
2018-03-14T00:03:49.057Z,16.50
2018-03-14T00:06:16.592Z,16.47
2018-03-14T00:08:44.118Z,15.10
2018-03-14T00:11:11.674Z,15.73
2018-03-14T00:13:39.204Z,16.13
2018-03-14T00:16:07.061Z,16.40
2018-03-14T00:18:34.586Z,17.03
2018-03-14T00:21:02.129Z,15.90
2018-03-14T00:23:29.683Z,17.20
2018-03-14T00:25:57.201Z,16.17
2018-03-14T00:28:24.733Z,16.60
2018-03-14T00:30:52.255Z,16.47
2018-03-14T00:33:19.775Z,18.00
2018-03-14T00:35:47.333Z,18.13
2018-03-14T00:38:14.875Z,17.07
2018-03-14T00:40:42.393Z,17.50
2018-03-14T00:43:09.933Z,17.90
2018-03-14T00:45:37.799Z,17.90
2018-03-14T00:48:05.661Z,20.63
2018-03-14T00:50:33.162Z,19.50
2018-03-14T00:53:00.669Z,19.03
2018-03-14T00:55:28.209Z,17.73
2018-03-14T00:57:55.731Z,17.87
2018-03-14T01:00:23.279Z,18.07
2018-03-14T01:02:50.798Z,17.40
2018-03-14T01:05:18.689Z,17.60
2018-03-14T01:07:46.228Z,17.80
2018-03-14T01:10:13.768Z,17.83
2018-03-14T01:12:41.333Z,18.50
2018-03-14T01:15:08.857Z,18.10
2018-03-14T01:17:36.388Z,17.17
2018-03-14T01:20:03.930Z,18.57
2018-03-14T01:22:31.452Z,17.90
2018-03-14T01:25:00.228Z,17.60
2018-03-14T01:27:27.784Z,17.30
2018-03-14T01:29:55.624Z,17.07
2018-03-14T01:32:23.191Z,16.30
2018-03-14T01:34:50.704Z,16.80
2018-03-14T01:37:18.218Z,17.00
2018-03-14T01:39:45.775Z,16.87
2018-03-14T01:42:13.387Z,17.47
2018-03-14T01:44:41.196Z,16.43
2018-03-14T01:47:09.065Z,17.03
2018-03-14T01:49:36.828Z,17.10
2018-03-14T01:52:04.591Z,16.93
2018-03-14T01:54:32.183Z,18.07
2018-03-14T01:56:59.687Z,15.73
2018-03-14T01:59:27.206Z,16.50
2018-03-14T02:01:54.772Z,17.03
2018-03-14T02:04:22.606Z,16.00
2018-03-14T02:06:50.159Z,15.50
2018-03-14T02:09:17.928Z,15.60
2018-03-14T02:11:45.507Z,15.07
2018-03-14T02:14:13.091Z,13.93
2018-03-14T02:16:40.643Z,14.57
2018-03-14T02:19:08.291Z,15.57
2018-03-14T02:21:35.809Z,14.90
2018-03-14T02:24:03.323Z,14.77
2018-03-14T02:26:30.866Z,15.43
2018-03-14T02:28:58.374Z,14.43
2018-03-14T02:31:26.152Z,15.37
2018-03-14T02:33:53.672Z,14.93
2018-03-14T02:39:26.276Z,14.40
2018-03-14T02:41:54.103Z,13.17
2018-03-14T02:44:21.872Z,14.07
2018-03-14T02:46:49.378Z,13.77
2018-03-14T02:49:16.896Z,12.70
2018-03-14T02:51:44.472Z,13.40
2018-03-14T02:54:11.985Z,13.17
2018-03-14T02:56:39.489Z,13.20
2018-03-14T02:59:06.974Z,12.93
2018-03-14T03:01:34.480Z,13.10
2018-03-14T03:04:01.971Z,13.50
2018-03-14T03:06:29.501Z,13.40
2018-03-14T03:08:57.013Z,12.80
2018-03-14T03:11:24.527Z,12.80
2018-03-14T03:13:52.035Z,12.60
2018-03-14T03:16:19.543Z,13.90
2018-03-14T03:18:47.064Z,14.13
2018-03-14T03:21:14.622Z,13.80
2018-03-14T03:23:42.121Z,13.10
2018-03-14T03:26:09.650Z,12.97
2018-03-14T03:28:37.144Z,12.93
2018-03-14T03:31:04.684Z,13.87
2018-03-14T03:33:32.232Z,13.90
2018-03-14T03:36:00.033Z,14.20
2018-03-14T03:38:27.590Z,13.20
2018-03-14T03:40:55.107Z,13.30
2018-03-14T03:43:22.641Z,13.50
2018-03-14T03:45:50.146Z,14.00
2018-03-14T03:48:17.634Z,14.27
2018-03-14T03:50:45.157Z,13.73
2018-03-14T03:53:12.682Z,13.93
2018-03-14T03:55:40.236Z,14.00
2018-03-14T03:58:07.750Z,14.50
2018-03-14T04:00:35.246Z,13.10
2018-03-14T04:03:02.769Z,13.93
2018-03-14T04:05:30.315Z,13.40
2018-03-14T04:07:58.116Z,13.97
2018-03-14T04:10:25.993Z,14.17
2018-03-14T04:12:54.433Z,13.13
2018-03-14T04:15:21.950Z,13.00
2018-03-14T04:17:49.443Z,13.67
2018-03-14T04:20:17.254Z,13.90
2018-03-14T04:22:44.756Z,14.40
2018-03-14T04:25:12.263Z,13.43
2018-03-14T04:27:39.783Z,13.60
2018-03-14T04:30:07.287Z,13.90
2018-03-14T04:32:35.054Z,13.00
2018-03-14T04:35:02.574Z,13.53
2018-03-14T04:37:30.081Z,12.80
2018-03-14T04:39:57.838Z,14.07
2018-03-14T04:42:25.343Z,13.10
2018-03-14T04:44:52.865Z,13.30
2018-03-14T04:47:20.627Z,13.30
2018-03-14T04:49:48.131Z,13.27
2018-03-14T04:52:15.667Z,12.40
2018-03-14T04:54:43.161Z,13.30
2018-03-14T04:57:10.718Z,12.37
2018-03-14T04:59:38.218Z,13.87
2018-03-14T05:02:05.720Z,13.13
2018-03-14T05:04:33.560Z,12.70
2018-03-14T05:07:01.176Z,12.37
2018-03-14T05:09:28.705Z,12.50
2018-03-14T05:11:56.231Z,13.30
2018-03-14T05:14:23.727Z,12.13
2018-03-14T05:16:51.555Z,12.33
2018-03-14T05:19:19.325Z,12.23
2018-03-14T05:21:46.857Z,11.50
2018-03-14T05:24:14.364Z,11.67
2018-03-14T05:26:42.118Z,11.30
2018-03-14T05:29:09.648Z,12.33
2018-03-14T05:31:37.177Z,12.57
2018-03-14T05:34:04.703Z,11.60
2018-03-14T05:36:32.195Z,12.43
2018-03-14T05:38:59.719Z,12.40
2018-03-14T05:41:27.260Z,11.90
2018-03-14T05:43:54.791Z,11.80
2018-03-14T05:46:22.335Z,12.47
2018-03-14T05:48:49.846Z,11.83
2018-03-14T05:51:17.615Z,12.33
2018-03-14T05:53:45.168Z,11.67
2018-03-14T05:56:12.946Z,11.80
2018-03-14T05:58:40.527Z,12.07
2018-03-14T06:01:08.035Z,11.50
2018-03-14T06:03:35.529Z,12.27
2018-03-14T06:06:03.082Z,12.30
2018-03-14T06:08:30.610Z,12.17
2018-03-14T06:10:58.151Z,12.20
2018-03-14T06:13:25.663Z,12.70
2018-03-14T06:15:53.167Z,12.40
2018-03-14T06:18:20.714Z,12.10
2018-03-14T06:20:48.224Z,12.23
2018-03-14T06:23:16.110Z,11.80
2018-03-14T06:25:43.613Z,11.70
2018-03-14T06:28:11.163Z,12.23
2018-03-14T06:30:38.683Z,12.47
2018-03-14T06:33:06.264Z,11.63
2018-03-14T06:35:33.871Z,12.20
2018-03-14T06:38:01.401Z,12.80
2018-03-14T06:40:28.894Z,12.63
2018-03-14T06:42:56.417Z,13.73
2018-03-14T06:45:24.164Z,12.40
2018-03-14T06:47:51.751Z,13.13
2018-03-14T06:50:19.483Z,12.97
2018-03-14T06:52:47.025Z,12.70
2018-03-14T06:55:14.812Z,12.80
2018-03-14T06:57:42.677Z,11.83
2018-03-14T07:00:21.964Z,12.50
2018-03-14T07:02:49.601Z,12.87
2018-03-14T07:05:29.122Z,12.90
2018-03-14T07:07:56.878Z,14.73
2018-03-14T07:10:24.431Z,13.13
2018-03-14T07:12:51.968Z,13.30
2018-03-14T07:15:19.485Z,13.70
2018-03-14T07:17:47.048Z,13.00
2018-03-14T07:20:14.593Z,13.53
2018-03-14T07:22:42.104Z,13.90
2018-03-14T07:25:09.683Z,12.83
2018-03-14T07:27:37.317Z,13.33
2018-03-14T07:30:04.883Z,13.93
2018-03-14T07:32:32.404Z,13.20
2018-03-14T07:34:59.911Z,14.20
2018-03-14T07:37:27.453Z,14.50
2018-03-14T07:39:54.971Z,15.10
2018-03-14T07:42:22.517Z,14.17
2018-03-14T07:44:50.028Z,14.47
2018-03-14T07:47:17.572Z,14.27
2018-03-14T07:49:45.423Z,15.07
2018-03-14T07:52:12.935Z,14.20
2018-03-14T07:54:40.480Z,13.90
2018-03-14T07:57:07.998Z,13.97
2018-03-14T07:59:35.484Z,16.13
2018-03-14T08:02:03.018Z,14.30
2018-03-14T08:04:30.546Z,15.97
2018-03-14T08:06:58.251Z,14.60
2018-03-14T08:09:25.785Z,16.30
2018-03-14T08:11:53.346Z,16.33
2018-03-14T08:14:20.888Z,14.97
2018-03-14T08:16:48.454Z,15.50
2018-03-14T08:19:16.012Z,17.20
2018-03-14T08:21:43.534Z,17.23
2018-03-14T08:24:11.100Z,16.30
2018-03-14T08:26:38.685Z,17.10
2018-03-14T08:29:06.915Z,17.23
2018-03-14T08:31:34.459Z,16.10
2018-03-14T08:34:02.107Z,16.60
2018-03-14T08:36:29.631Z,15.50
2018-03-14T08:38:57.157Z,16.77
2018-03-14T08:41:24.820Z,17.80
2018-03-14T08:43:52.362Z,17.40
2018-03-14T08:46:19.879Z,17.27
2018-03-14T08:48:47.803Z,17.50
2018-03-14T08:51:15.528Z,17.70
2018-03-14T08:53:43.071Z,17.20
2018-03-14T08:56:10.607Z,17.67
2018-03-14T08:58:38.151Z,18.23
2018-03-14T09:01:05.889Z,17.57
2018-03-14T09:03:33.408Z,17.03
2018-03-14T09:06:01.505Z,16.67
2018-03-14T09:08:29.028Z,16.67
2018-03-14T09:10:56.633Z,18.93
2018-03-14T09:13:24.796Z,17.37
2018-03-14T09:15:52.655Z,17.27
2018-03-14T09:18:21.256Z,17.50
2018-03-14T09:20:48.845Z,17.30
2018-03-14T09:23:16.433Z,17.80
2018-03-14T09:25:44.006Z,17.93
2018-03-14T09:28:11.530Z,16.87
2018-03-14T09:30:40.070Z,16.20
2018-03-14T09:33:07.909Z,19.30
2018-03-14T09:35:35.542Z,16.47
2018-03-14T09:38:03.057Z,16.67
2018-03-14T09:40:30.604Z,16.57
2018-03-14T09:42:58.888Z,17.23
2018-03-14T09:45:27.115Z,16.67
2018-03-14T09:47:55.304Z,16.23
2018-03-14T09:50:22.871Z,15.27
2018-03-14T09:52:50.513Z,17.23
2018-03-14T09:55:18.096Z,17.00
2018-03-14T09:57:45.680Z,17.13
2018-03-14T10:00:14.971Z,16.37
2018-03-14T10:02:42.702Z,17.27
2018-03-14T10:05:10.257Z,15.90
2018-03-14T10:07:38.054Z,16.20
2018-03-14T10:10:05.632Z,16.90
2018-03-14T10:12:34.393Z,18.40
2018-03-14T10:15:01.907Z,16.80
2018-03-14T10:17:29.487Z,15.63
2018-03-14T10:19:57.215Z,16.67
2018-03-14T10:22:24.729Z,16.90
2018-03-14T10:24:52.308Z,16.43
2018-03-14T10:27:19.835Z,14.93
2018-03-14T10:29:47.363Z,14.70
2018-03-14T10:32:15.218Z,15.30
2018-03-14T10:34:42.889Z,16.00
2018-03-14T10:37:11.779Z,16.30
2018-03-14T10:39:39.415Z,17.20
2018-03-14T10:42:07.246Z,16.53
2018-03-14T10:44:34.955Z,16.43
2018-03-14T10:47:02.526Z,15.27
2018-03-14T10:49:30.155Z,17.30
2018-03-14T10:51:57.826Z,15.90
2018-03-14T10:54:26.295Z,16.57
2018-03-14T10:56:53.894Z,16.23
2018-03-14T10:59:21.413Z,18.77
2018-03-14T11:01:48.952Z,16.30
2018-03-14T11:04:16.474Z,15.73
2018-03-14T11:06:43.980Z,17.73
2018-03-14T11:09:11.515Z,15.10
2018-03-14T11:11:39.022Z,16.00
2018-03-14T11:14:06.895Z,15.57
2018-03-14T11:16:35.102Z,16.20
2018-03-14T11:19:02.603Z,15.70
2018-03-14T11:21:30.263Z,15.70
2018-03-14T11:23:58.809Z,17.53
2018-03-14T11:26:26.664Z,16.57
2018-03-14T11:28:54.204Z,16.00
2018-03-14T11:31:21.732Z,16.40
2018-03-14T11:33:49.305Z,15.47
2018-03-14T11:36:17.144Z,15.70
2018-03-14T11:38:44.812Z,15.43
2018-03-14T11:41:12.353Z,16.80
2018-03-14T11:43:39.913Z,16.80
2018-03-14T11:46:07.455Z,17.50
2018-03-14T11:48:34.985Z,16.90
2018-03-14T11:51:02.514Z,17.30
2018-03-14T11:53:30.042Z,16.80
2018-03-14T11:55:57.560Z,16.47
2018-03-14T11:58:25.109Z,16.73
2018-03-14T12:00:52.641Z,17.10
2018-03-14T12:03:20.561Z,16.80
2018-03-14T12:05:48.430Z,16.23
2018-03-14T12:08:15.939Z,17.70
2018-03-14T12:10:43.500Z,15.67
2018-03-14T12:13:11.986Z,16.77
2018-03-14T12:15:39.484Z,16.17
2018-03-14T12:18:07.165Z,16.40
2018-03-14T12:20:34.668Z,15.20
2018-03-14T12:23:02.199Z,16.53
2018-03-14T12:25:29.732Z,15.77
2018-03-14T12:27:57.304Z,15.50
2018-03-14T12:30:24.906Z,15.80
2018-03-14T12:32:52.549Z,15.93
2018-03-14T12:35:20.316Z,15.90
2018-03-14T12:37:48.389Z,16.77
2018-03-14T12:40:15.932Z,17.13
2018-03-14T12:42:43.451Z,15.83
2018-03-14T12:45:10.956Z,16.00
2018-03-14T12:47:38.702Z,16.20
2018-03-14T12:50:06.225Z,16.37
2018-03-14T12:52:33.778Z,16.20
2018-03-14T12:55:01.344Z,16.70
2018-03-14T12:57:28.860Z,16.93
2018-03-14T12:59:56.421Z,16.50
2018-03-14T13:02:23.984Z,16.40
2018-03-14T13:04:51.507Z,17.77
2018-03-14T13:07:19.014Z,18.00
2018-03-14T13:09:46.791Z,16.30
2018-03-14T13:12:14.634Z,17.00
2018-03-14T13:14:42.482Z,15.80
2018-03-14T13:17:10.010Z,16.37
2018-03-14T13:19:38.616Z,15.83
2018-03-14T13:22:06.128Z,16.40
2018-03-14T13:24:33.686Z,15.87
2018-03-14T13:27:01.211Z,16.63
2018-03-14T13:29:28.747Z,16.30
2018-03-14T13:31:56.443Z,16.83
2018-03-14T13:34:23.966Z,15.53
2018-03-14T13:36:51.762Z,15.27
2018-03-14T13:39:19.260Z,16.10
2018-03-14T13:41:46.813Z,16.60
2018-03-14T13:44:14.363Z,15.57
2018-03-14T13:46:41.932Z,15.67
2018-03-14T13:49:09.455Z,16.03
2018-03-14T13:51:37.222Z,15.47
2018-03-14T13:54:04.795Z,15.20
2018-03-14T13:56:32.332Z,16.40
2018-03-14T13:59:00.078Z,15.33
2018-03-14T14:01:27.786Z,15.23
2018-03-14T14:03:55.471Z,14.60
2018-03-14T14:06:23.055Z,13.80
2018-03-14T14:08:52.202Z,14.20
2018-03-14T14:11:19.819Z,13.67
2018-03-14T14:13:47.460Z,13.03
2018-03-14T14:16:15.249Z,12.40
2018-03-14T14:18:43.061Z,13.60
2018-03-14T14:21:10.757Z,13.90
2018-03-14T14:23:38.269Z,12.90
2018-03-14T14:26:05.899Z,13.87
2018-03-14T14:28:33.412Z,14.60
2018-03-14T14:31:00.939Z,13.30
2018-03-14T14:33:28.479Z,12.93
2018-03-14T14:35:56.057Z,13.40
2018-03-14T14:38:23.591Z,13.70
2018-03-14T14:40:51.107Z,12.87
2018-03-14T14:43:18.641Z,12.50
2018-03-14T14:45:46.142Z,13.43
2018-03-14T14:48:13.668Z,12.27
2018-03-14T14:50:41.390Z,12.40
2018-03-14T14:53:08.918Z,12.70
2018-03-14T14:55:36.465Z,13.20
2018-03-14T14:58:03.962Z,13.53
2018-03-14T15:00:31.477Z,12.43
2018-03-14T15:02:59.026Z,12.50
2018-03-14T15:05:26.546Z,14.07
2018-03-14T15:07:54.075Z,12.50
2018-03-14T15:10:21.878Z,12.40
2018-03-14T15:12:49.396Z,12.63
2018-03-14T15:15:17.037Z,11.50
2018-03-14T15:17:44.569Z,12.50
2018-03-14T15:20:12.131Z,12.47
2018-03-14T15:22:39.668Z,11.77
2018-03-14T15:25:07.221Z,12.33
2018-03-14T15:27:34.756Z,12.47
2018-03-14T15:30:02.299Z,11.80
2018-03-14T15:32:29.955Z,12.00
2018-03-14T15:34:57.524Z,12.17
2018-03-14T15:37:25.114Z,11.77
2018-03-14T15:39:52.652Z,11.50
2018-03-14T15:42:20.244Z,11.60
2018-03-14T15:44:47.801Z,11.10
2018-03-14T15:47:15.314Z,11.83
2018-03-14T15:49:43.110Z,11.13
2018-03-14T15:52:10.640Z,11.20
2018-03-14T15:54:38.531Z,11.50
2018-03-14T15:57:06.144Z,11.33
2018-03-14T15:59:33.711Z,12.20
2018-03-14T16:02:01.271Z,12.30
2018-03-14T16:04:28.816Z,13.00
2018-03-14T16:06:56.335Z,13.37
2018-03-14T16:09:24.035Z,12.77
2018-03-14T16:11:51.540Z,12.60
2018-03-14T16:14:19.096Z,12.73
2018-03-14T16:16:46.626Z,12.47
2018-03-14T16:19:14.307Z,12.17
2018-03-14T16:21:42.108Z,13.10
2018-03-14T16:24:09.633Z,12.53
2018-03-14T16:26:37.219Z,12.20
2018-03-14T16:29:04.750Z,13.30
2018-03-14T16:31:32.280Z,12.23
2018-03-14T16:33:59.910Z,13.60
2018-03-14T16:36:27.425Z,11.90
2018-03-14T16:38:54.960Z,12.70
2018-03-14T16:41:22.527Z,12.80
2018-03-14T16:43:50.040Z,13.00
2018-03-14T16:46:17.599Z,13.77
2018-03-14T16:48:45.136Z,13.40
2018-03-14T16:51:12.659Z,12.87
2018-03-14T16:53:40.179Z,13.77
2018-03-14T16:56:07.688Z,14.90
2018-03-14T16:58:35.262Z,14.00
2018-03-14T17:01:02.831Z,14.60
2018-03-14T17:03:30.333Z,15.23
2018-03-14T17:05:57.858Z,15.30
2018-03-14T17:08:25.363Z,15.20
2018-03-14T17:10:53.371Z,14.47
2018-03-14T17:13:21.240Z,14.50
2018-03-14T17:15:48.761Z,13.93
2018-03-14T17:18:16.315Z,13.40
2018-03-14T17:20:43.934Z,13.07
2018-03-14T17:23:11.539Z,15.10
2018-03-14T17:25:39.092Z,18.20
2018-03-14T17:28:06.631Z,13.60
2018-03-14T17:30:34.420Z,13.73
2018-03-14T17:33:02.012Z,13.40
2018-03-14T17:35:29.550Z,13.93
2018-03-14T17:37:57.055Z,13.77
2018-03-14T17:40:24.580Z,14.80
2018-03-14T17:42:52.079Z,14.00
2018-03-14T17:45:19.745Z,13.43
2018-03-14T17:47:47.324Z,13.43
2018-03-14T17:50:14.843Z,12.93
2018-03-14T17:52:42.376Z,13.43
2018-03-14T17:55:09.981Z,13.90
2018-03-14T17:57:37.669Z,14.20
2018-03-14T18:00:05.261Z,14.20
2018-03-14T18:02:32.780Z,12.90
2018-03-14T18:05:00.380Z,14.40
2018-03-14T18:07:28.141Z,13.40
2018-03-14T18:09:56.236Z,14.43
2018-03-14T18:12:23.737Z,14.40
2018-03-14T18:14:51.405Z,14.47
2018-03-14T18:17:19.014Z,14.13
2018-03-14T18:19:46.576Z,14.90
2018-03-14T18:22:14.140Z,15.30
2018-03-14T18:24:41.678Z,14.57
2018-03-14T18:27:09.461Z,14.83
2018-03-14T18:29:37.027Z,15.90
2018-03-14T18:32:04.881Z,15.30
2018-03-14T18:34:33.378Z,14.30
2018-03-14T18:37:01.198Z,16.03
2018-03-14T18:39:28.711Z,16.03
2018-03-14T18:41:56.247Z,16.77
2018-03-14T18:44:24.015Z,15.77
2018-03-14T18:46:51.609Z,16.53
2018-03-14T18:49:19.151Z,16.20
2018-03-14T18:51:46.667Z,16.60
2018-03-14T18:54:14.249Z,17.10
2018-03-14T18:56:41.754Z,17.70
2018-03-14T18:59:09.391Z,16.63
2018-03-14T19:01:37.139Z,17.23
2018-03-14T19:04:04.665Z,17.50
2018-03-14T19:06:32.202Z,16.47
2018-03-14T19:08:59.980Z,16.80
2018-03-14T19:11:27.600Z,15.97
2018-03-14T19:13:55.120Z,16.80
2018-03-14T19:16:22.626Z,16.67
2018-03-14T19:18:50.154Z,15.37
2018-03-14T19:21:17.664Z,13.63
2018-03-14T19:23:45.196Z,14.37
2018-03-14T19:26:12.724Z,16.17
2018-03-14T19:28:40.224Z,15.40
2018-03-14T19:31:07.741Z,15.20
2018-03-14T19:33:35.264Z,15.90
2018-03-14T19:36:02.799Z,15.37
2018-03-14T19:38:30.317Z,15.10
2018-03-14T19:40:57.816Z,14.20
2018-03-14T19:43:25.338Z,14.13
2018-03-14T19:45:52.822Z,15.13
2018-03-14T19:48:20.363Z,14.23
2018-03-14T19:50:48.679Z,13.80
2018-03-14T19:53:16.233Z,14.83
2018-03-14T19:55:43.806Z,14.50
2018-03-14T19:58:11.464Z,14.90
2018-03-14T20:00:39.113Z,15.23
2018-03-14T20:03:06.660Z,14.23
2018-03-14T20:05:34.192Z,13.70
2018-03-14T20:08:01.737Z,13.97
2018-03-14T20:10:29.243Z,15.23
2018-03-14T20:12:56.788Z,14.40
2018-03-14T20:15:24.297Z,14.37
2018-03-14T20:17:51.884Z,14.13
2018-03-14T20:20:21.168Z,14.90
2018-03-14T20:22:49.178Z,14.70
2018-03-14T20:25:16.913Z,14.80
2018-03-14T20:27:44.421Z,13.60
2018-03-14T20:30:19.220Z,14.03
2018-03-14T20:32:46.727Z,13.87
2018-03-14T20:35:14.255Z,14.10
2018-03-14T20:37:41.788Z,15.50
2018-03-14T20:40:10.783Z,13.63
2018-03-14T20:42:38.309Z,12.60
2018-03-14T20:45:06.023Z,13.00
2018-03-14T20:47:33.610Z,12.87
2018-03-14T20:50:01.334Z,14.20
2018-03-14T20:52:29.050Z,14.87
2018-03-14T20:54:56.932Z,14.53
2018-03-14T20:57:24.589Z,16.37
2018-03-14T20:59:52.128Z,16.80
2018-03-14T21:02:20.031Z,16.50
2018-03-14T21:04:47.577Z,17.93
2018-03-14T21:07:15.092Z,16.90
2018-03-14T21:09:42.624Z,16.80
2018-03-14T21:12:10.186Z,18.37
2018-03-14T21:14:38.212Z,17.97
2018-03-14T21:17:05.927Z,20.20
2018-03-14T21:19:36.381Z,19.13
2018-03-14T21:22:04.480Z,19.50
2018-03-14T21:24:32.112Z,18.60
2018-03-14T21:26:59.665Z,20.60
2018-03-14T21:29:27.260Z,20.20
2018-03-14T21:31:54.795Z,20.97
2018-03-14T21:34:22.401Z,21.13
2018-03-14T21:36:50.028Z,21.20
2018-03-14T21:39:17.682Z,20.90
2018-03-14T21:41:45.100Z,19.40
2018-03-14T21:44:13.104Z,20.93
2018-03-14T21:46:40.712Z,20.30
2018-03-14T21:49:08.252Z,19.23
2018-03-14T21:51:35.760Z,17.40
2018-03-14T21:54:03.319Z,20.03
2018-03-14T21:56:30.971Z,18.50
2018-03-14T21:58:58.515Z,17.07
2018-03-14T22:01:26.043Z,18.27
2018-03-14T22:03:53.596Z,17.67
2018-03-14T22:06:21.520Z,16.63
2018-03-14T22:08:49.001Z,19.13
2018-03-14T22:11:16.573Z,20.63
2018-03-14T22:13:44.104Z,17.27
2018-03-14T22:16:12.322Z,16.77
2018-03-14T22:18:39.847Z,16.13
2018-03-14T22:21:07.398Z,16.20
2018-03-14T22:23:34.972Z,16.50
2018-03-14T22:26:02.538Z,15.30
2018-03-14T22:28:30.104Z,16.13
2018-03-14T22:30:57.649Z,14.80
2018-03-14T22:33:25.177Z,15.27
2018-03-14T22:35:52.699Z,15.93
2018-03-14T22:38:20.220Z,16.00
2018-03-14T22:40:47.749Z,16.70
2018-03-14T22:43:15.256Z,16.33
2018-03-14T22:45:42.836Z,17.60
2018-03-14T22:48:10.375Z,16.97
2018-03-14T22:50:37.914Z,15.03
2018-03-14T22:53:05.580Z,15.93
2018-03-14T22:55:33.276Z,17.13
2018-03-14T22:58:00.871Z,16.60
2018-03-14T23:00:28.381Z,16.80
2018-03-14T23:02:55.964Z,15.87
2018-03-14T23:05:23.488Z,16.00
2018-03-14T23:07:51.007Z,16.73
2018-03-14T23:10:18.535Z,17.80
2018-03-14T23:12:46.051Z,16.30
2018-03-14T23:15:13.672Z,16.00
2018-03-14T23:17:41.173Z,17.10
2018-03-14T23:20:08.704Z,18.40
2018-03-14T23:22:36.489Z,18.37
2018-03-14T23:25:04.063Z,17.97
2018-03-14T23:27:31.574Z,19.23
2018-03-14T23:29:59.172Z,18.03
2018-03-14T23:32:27.044Z,23.23
2018-03-14T23:34:54.579Z,21.40
2018-03-14T23:37:22.092Z,19.43
2018-03-14T23:39:49.670Z,19.13
2018-03-14T23:42:17.205Z,18.23
2018-03-14T23:44:44.723Z,17.80
2018-03-14T23:47:12.385Z,17.87
2018-03-14T23:49:39.868Z,18.17
2018-03-14T23:52:07.412Z,17.63
2018-03-14T23:54:34.925Z,18.97
2018-03-14T23:57:02.758Z,18.90
2018-03-14T23:59:30.292Z,18.30
